createdAt,value
2022-10-07T00:00:45.403Z,1030.043579
2022-10-07T00:01:41.111Z,1030.008789
2022-10-07T00:02:42.480Z,1030.078247
2022-10-07T00:03:39.832Z,1030.038208
2022-10-07T00:04:37.331Z,1030.102661
2022-10-07T00:05:37.662Z,1030.05957
2022-10-07T00:07:35.339Z,1029.975708
2022-10-07T00:08:27.283Z,1029.994873
2022-10-07T00:09:29.348Z,1030.000122
2022-10-07T00:10:20.948Z,1030.029541
2022-10-07T00:11:22.395Z,1030.066895
2022-10-07T00:12:16.909Z,1029.997192
2022-10-07T00:13:12.587Z,1030.034546
2022-10-07T00:14:49.081Z,1030.09668
2022-10-07T00:15:36.609Z,1030.056396
2022-10-07T00:16:35.779Z,1029.938232
2022-10-07T00:17:36.818Z,1030.064697
2022-10-07T00:18:34.480Z,1029.943481
2022-10-07T00:19:36.899Z,1029.973267
2022-10-07T00:20:41.363Z,1029.887207
2022-10-07T00:22:40.486Z,1029.932861
2022-10-07T00:23:39.878Z,1030.005249
2022-10-07T00:24:42.422Z,1029.929932
2022-10-07T00:25:38.426Z,1029.959351
2022-10-07T00:27:35.550Z,1029.964844
2022-10-07T00:28:38.822Z,1029.89502
2022-10-07T00:29:35.671Z,1029.889526
2022-10-07T00:30:39.883Z,1029.79541
2022-10-07T00:31:32.921Z,1029.835815
2022-10-07T00:32:38.214Z,1029.784668
2022-10-07T00:33:37.326Z,1029.757935
2022-10-07T00:34:46.354Z,1029.779663
2022-10-07T00:35:42.575Z,1029.758301
2022-10-07T00:37:42.386Z,1029.771973
2022-10-07T00:38:42.863Z,1029.715332
2022-10-07T00:39:38.871Z,1029.720337
2022-10-07T00:40:39.065Z,1029.800903
2022-10-07T00:41:35.403Z,1029.672485
2022-10-07T00:42:38.414Z,1029.712524
2022-10-07T00:43:37.587Z,1029.771606
2022-10-07T00:44:41.741Z,1029.613159
2022-10-07T00:45:35.010Z,1029.709717
2022-10-07T00:47:33.066Z,1029.667114
2022-10-07T00:48:36.558Z,1029.669922
2022-10-07T00:49:29.232Z,1029.648193
2022-10-07T00:50:31.759Z,1029.68811
2022-10-07T00:52:24.531Z,1029.643066
2022-10-07T00:53:25.622Z,1029.621338
2022-10-07T00:54:21.802Z,1029.650635
2022-10-07T00:55:24.867Z,1029.664063
2022-10-07T00:57:23.019Z,1029.639893
2022-10-07T00:58:26.784Z,1029.540894
2022-10-07T01:00:38.423Z,1029.46875
2022-10-07T01:01:02.633Z,1029.514648
2022-10-07T01:03:06.295Z,1029.504883
2022-10-07T01:04:09.046Z,1029.526245
2022-10-07T01:05:09.111Z,1029.483398
2022-10-07T01:06:09.746Z,1029.563843
2022-10-07T01:07:12.068Z,1029.496338
2022-10-07T01:08:14.061Z,1029.421143
2022-10-07T01:09:20.749Z,1029.482666
2022-10-07T01:10:21.407Z,1029.453247
2022-10-07T01:11:20.365Z,1029.482666
2022-10-07T01:12:27.790Z,1029.437134
2022-10-07T01:13:30.393Z,1029.410156
2022-10-07T01:14:33.045Z,1029.41272
2022-10-07T01:15:33.100Z,1029.342896
2022-10-07T01:16:35.329Z,1029.377686
2022-10-07T01:17:33.062Z,1029.369751
2022-10-07T01:18:35.630Z,1029.415161
2022-10-07T01:19:36.475Z,1029.329224
2022-10-07T01:20:34.366Z,1029.391113
2022-10-07T01:22:33.407Z,1029.361206
2022-10-07T01:23:37.089Z,1029.361206
2022-10-07T01:24:32.319Z,1029.374512
2022-10-07T01:25:37.034Z,1029.296631
2022-10-07T01:26:33.138Z,1029.310303
2022-10-07T01:27:34.924Z,1029.251221
2022-10-07T01:28:35.858Z,1029.221313
2022-10-07T01:29:38.528Z,1029.286133
2022-10-07T01:30:36.536Z,1029.186157
2022-10-07T01:32:38.091Z,1029.183594
2022-10-07T01:33:41.106Z,1029.151367
2022-10-07T01:34:38.184Z,1029.178223
2022-10-07T01:35:43.799Z,1029.194214
2022-10-07T01:37:27.596Z,1029.140991
2022-10-07T01:38:12.917Z,1029.16272
2022-10-07T01:39:10.041Z,1029.103394
2022-10-07T01:40:08.471Z,1029.095337
2022-10-07T01:41:07.265Z,1029.105957
2022-10-07T01:42:06.272Z,1029.041748
2022-10-07T01:43:07.205Z,1029.028687
2022-10-07T01:43:59.356Z,1029.006958
2022-10-07T01:44:59.501Z,1028.974609
2022-10-07T01:45:56.731Z,1028.985229
2022-10-07T01:46:55.946Z,1028.985229
2022-10-07T01:47:51.544Z,1028.990479
2022-10-07T01:49:05.020Z,1028.912109
2022-10-07T01:50:00.468Z,1028.909668
2022-10-07T01:51:00.894Z,1028.893921
2022-10-07T01:51:55.536Z,1028.899414
2022-10-07T01:52:55.454Z,1028.912109
2022-10-07T01:53:53.876Z,1028.853638
2022-10-07T01:55:00.506Z,1028.925781
2022-10-07T01:55:55.325Z,1028.818604
2022-10-07T01:57:54.049Z,1028.732666
2022-10-07T01:58:47.739Z,1028.81311
2022-10-07T01:59:55.199Z,1028.735474
2022-10-07T02:01:03.488Z,1028.783813
2022-10-07T02:02:02.094Z,1028.751587
2022-10-07T02:03:00.268Z,1028.837158
2022-10-07T02:04:02.818Z,1028.761719
2022-10-07T02:04:57.026Z,1028.753662
2022-10-07T02:05:56.342Z,1028.807251
2022-10-07T02:07:52.158Z,1028.74292
2022-10-07T02:08:47.954Z,1028.756348
2022-10-07T02:09:50.364Z,1028.804443
2022-10-07T02:10:44.126Z,1028.758911
2022-10-07T02:11:44.725Z,1028.817871
2022-10-07T02:12:39.917Z,1028.758911
2022-10-07T02:13:39.503Z,1028.71582
2022-10-07T02:14:33.874Z,1028.742554
2022-10-07T02:15:36.813Z,1028.750854
2022-10-07T02:16:41.255Z,1028.729614
2022-10-07T02:17:49.320Z,1028.646606
2022-10-07T02:18:47.802Z,1028.686401
2022-10-07T02:20:21.342Z,1028.68457
2022-10-07T02:22:05.239Z,1028.616455
2022-10-07T02:22:45.104Z,1028.549561
2022-10-07T02:23:49.723Z,1028.552246
2022-10-07T02:24:44.788Z,1028.581665
2022-10-07T02:25:41.584Z,1028.565186
2022-10-07T02:26:45.808Z,1028.557251
2022-10-07T02:27:43.250Z,1028.581177
2022-10-07T02:28:44.638Z,1028.567139
2022-10-07T02:29:39.887Z,1028.56958
2022-10-07T02:30:41.638Z,1028.542725
2022-10-07T02:31:36.109Z,1028.486938
2022-10-07T02:32:35.617Z,1028.526611
2022-10-07T02:33:30.804Z,1028.60144
2022-10-07T02:34:33.080Z,1028.424438
2022-10-07T02:35:28.292Z,1028.526123
2022-10-07T02:36:29.016Z,1028.526611
2022-10-07T02:37:24.275Z,1028.57251
2022-10-07T02:38:24.908Z,1028.494141
2022-10-07T02:39:20.659Z,1028.513306
2022-10-07T02:40:22.845Z,1028.467163
2022-10-07T02:41:31.648Z,1028.432617
2022-10-07T02:42:28.334Z,1028.446045
2022-10-07T02:43:29.962Z,1028.424438
2022-10-07T02:44:24.427Z,1028.408203
2022-10-07T02:45:26.667Z,1028.445679
2022-10-07T02:47:20.307Z,1028.344116
2022-10-07T02:48:22.645Z,1028.427124
2022-10-07T02:49:15.311Z,1028.384155
2022-10-07T02:50:18.510Z,1028.365601
2022-10-07T02:51:10.407Z,1028.379028
2022-10-07T02:52:11.036Z,1028.330933
2022-10-07T02:53:08.659Z,1028.325317
2022-10-07T02:54:07.185Z,1028.314819
2022-10-07T02:55:04.307Z,1028.30127
2022-10-07T02:55:59.750Z,1028.244995
2022-10-07T02:57:58.713Z,1028.301147
2022-10-07T02:59:02.414Z,1028.202393
2022-10-07T03:00:46.497Z,1028.263916
2022-10-07T03:02:24.961Z,1028.283203
2022-10-07T03:03:24.269Z,1028.170654
2022-10-07T03:04:24.591Z,1028.130371
2022-10-07T03:05:23.942Z,1028.108765
2022-10-07T03:07:45.313Z,1028.046875
2022-10-07T03:08:39.690Z,1028.149048
2022-10-07T03:09:41.362Z,1028.170654
2022-10-07T03:10:39.465Z,1028.082153
2022-10-07T03:12:34.199Z,1028.06604
2022-10-07T03:13:37.470Z,1028.02832
2022-10-07T03:14:33.801Z,1028.038696
2022-10-07T03:15:36.392Z,1028.022583
2022-10-07T03:15:42.358Z,1028.022583
2022-10-07T03:17:26.029Z,1028.052734
2022-10-07T03:18:25.719Z,1028.001221
2022-10-07T03:19:22.205Z,1028.068604
2022-10-07T03:20:24.022Z,1028.02771
2022-10-07T03:22:18.694Z,1028.009766
2022-10-07T03:23:14.680Z,1027.966797
2022-10-07T03:24:16.493Z,1027.990356
2022-10-07T03:25:08.979Z,1027.982422
2022-10-07T03:26:11.389Z,1027.915161
2022-10-07T03:27:10.452Z,1027.934326
2022-10-07T03:28:15.364Z,1027.923584
2022-10-07T03:29:07.325Z,1027.923584
2022-10-07T03:30:07.609Z,1027.87207
2022-10-07T03:31:04.239Z,1027.882813
2022-10-07T03:33:03.505Z,1027.877319
2022-10-07T03:34:04.946Z,1027.877319
2022-10-07T03:35:03.538Z,1027.848511
2022-10-07T03:36:00.004Z,1027.877319
2022-10-07T03:38:05.649Z,1027.832031
2022-10-07T03:39:07.644Z,1027.866943
2022-10-07T03:40:03.887Z,1027.826538
2022-10-07T03:42:09.498Z,1027.885254
2022-10-07T03:43:06.523Z,1027.879761
2022-10-07T03:44:07.356Z,1027.88501
2022-10-07T03:45:06.296Z,1027.847778
2022-10-07T03:46:07.819Z,1027.828857
2022-10-07T03:48:06.498Z,1027.834229
2022-10-07T03:49:01.178Z,1027.901001
2022-10-07T03:50:02.915Z,1027.903564
2022-10-07T03:51:01.158Z,1027.844849
2022-10-07T03:52:55.447Z,1027.892822
2022-10-07T03:53:57.175Z,1027.932983
2022-10-07T03:54:53.587Z,1027.95166
2022-10-07T03:55:52.910Z,1027.890015
2022-10-07T03:56:50.934Z,1027.898071
2022-10-07T03:57:59.621Z,1027.868408
2022-10-07T03:58:50.802Z,1027.803955
2022-10-07T03:59:51.707Z,1027.921387
2022-10-07T04:00:47.149Z,1027.860229
2022-10-07T04:01:48.032Z,1027.839233
2022-10-07T04:02:47.658Z,1027.811768
2022-10-07T04:03:49.860Z,1027.865356
2022-10-07T04:05:17.822Z,1027.849121
2022-10-07T04:06:04.848Z,1027.820068
2022-10-07T04:08:09.077Z,1027.854736
2022-10-07T04:09:04.431Z,1027.840698
2022-10-07T04:10:06.189Z,1027.816895
2022-10-07T04:11:07.311Z,1027.806274
2022-10-07T04:12:06.558Z,1027.792847
2022-10-07T04:13:01.650Z,1027.789673
2022-10-07T04:14:01.533Z,1027.770874
2022-10-07T04:15:00.846Z,1027.770874
2022-10-07T04:16:03.936Z,1027.773193
2022-10-07T04:17:58.369Z,1027.773193
2022-10-07T04:18:53.972Z,1027.776001
2022-10-07T04:19:57.942Z,1027.738525
2022-10-07T04:20:54.321Z,1027.75708
2022-10-07T04:22:49.099Z,1027.714111
2022-10-07T04:23:50.284Z,1027.679443
2022-10-07T04:24:45.837Z,1027.681885
2022-10-07T04:25:43.326Z,1027.668457
2022-10-07T04:27:52.070Z,1027.663086
2022-10-07T04:28:53.467Z,1027.619873
2022-10-07T04:29:51.029Z,1027.676514
2022-10-07T04:30:50.607Z,1027.684204
2022-10-07T04:32:46.148Z,1027.633667
2022-10-07T04:33:49.268Z,1027.630615
2022-10-07T04:34:44.338Z,1027.660522
2022-10-07T04:35:45.918Z,1027.644287
2022-10-07T04:36:41.466Z,1027.644653
2022-10-07T04:37:41.875Z,1027.655273
2022-10-07T04:38:36.642Z,1027.660522
2022-10-07T04:39:56.429Z,1027.609009
2022-10-07T04:39:59.715Z,1027.609009
2022-10-07T04:40:00.318Z,1027.609009
2022-10-07T04:42:31.429Z,1027.575439
2022-10-07T04:43:28.571Z,1027.583618
2022-10-07T04:44:39.642Z,1027.535278
2022-10-07T04:45:34.786Z,1027.618042
2022-10-07T04:47:25.468Z,1027.546265
2022-10-07T04:48:08.587Z,1027.589233
2022-10-07T04:49:09.864Z,1027.591919
2022-10-07T04:50:06.425Z,1027.506104
2022-10-07T04:51:05.174Z,1027.623901
2022-10-07T04:52:07.264Z,1027.554199
2022-10-07T04:53:04.821Z,1027.543213
2022-10-07T04:54:08.707Z,1027.666138
2022-10-07T04:55:07.791Z,1027.518677
2022-10-07T04:57:08.272Z,1027.513916
2022-10-07T04:58:09.098Z,1027.526978
2022-10-07T04:59:09.240Z,1027.484131
2022-10-07T05:00:12.067Z,1027.494751
2022-10-07T05:01:16.340Z,1027.497925
2022-10-07T05:02:16.106Z,1027.481323
2022-10-07T05:03:17.338Z,1027.454468
2022-10-07T05:04:14.385Z,1027.427734
2022-10-07T05:05:17.410Z,1027.478638
2022-10-07T05:06:13.812Z,1027.425171
2022-10-07T05:07:18.929Z,1027.460083
2022-10-07T05:08:13.141Z,1027.390259
2022-10-07T05:09:15.849Z,1027.355347
2022-10-07T05:10:12.478Z,1027.3927
2022-10-07T05:11:14.890Z,1027.339233
2022-10-07T05:12:18.323Z,1027.293823
2022-10-07T05:13:16.418Z,1027.401245
2022-10-07T05:14:20.262Z,1027.312866
2022-10-07T05:15:19.086Z,1027.259155
2022-10-07T05:17:18.761Z,1027.310669
2022-10-07T05:18:22.685Z,1027.286377
2022-10-07T05:19:23.055Z,1027.232422
2022-10-07T05:20:26.529Z,1027.312378
2022-10-07T05:22:39.042Z,1027.320557
2022-10-07T05:23:45.025Z,1027.283203
2022-10-07T05:24:43.271Z,1027.33667
2022-10-07T05:26:27.627Z,1027.243408
2022-10-07T05:27:19.296Z,1027.283569
2022-10-07T05:28:17.338Z,1027.334961
2022-10-07T05:29:17.152Z,1027.265137
2022-10-07T05:30:12.012Z,1027.261963
2022-10-07T05:32:15.301Z,1027.267456
2022-10-07T05:33:15.697Z,1027.184204
2022-10-07T05:34:11.970Z,1027.208618
2022-10-07T05:35:13.114Z,1027.184204
2022-10-07T05:36:07.901Z,1027.189819
2022-10-07T05:37:11.326Z,1027.224487
2022-10-07T05:38:03.355Z,1027.184082
2022-10-07T05:39:02.850Z,1027.264404
2022-10-07T05:39:57.417Z,1027.178467
2022-10-07T05:40:57.490Z,1027.181274
2022-10-07T05:41:51.927Z,1027.191895
2022-10-07T05:42:56.011Z,1027.2323
2022-10-07T05:43:49.509Z,1027.234497
2022-10-07T05:44:49.226Z,1027.25354
2022-10-07T05:45:44.884Z,1027.255737
2022-10-07T05:47:47.071Z,1027.175293
2022-10-07T05:48:44.209Z,1027.162231
2022-10-07T05:49:38.567Z,1027.180542
2022-10-07T05:50:41.143Z,1027.156738
2022-10-07T05:51:35.858Z,1027.2052
2022-10-07T05:52:39.646Z,1027.097778
2022-10-07T05:53:32.866Z,1027.188721
2022-10-07T05:54:30.399Z,1027.119019
2022-10-07T05:55:34.682Z,1027.167114
2022-10-07T05:56:32.419Z,1027.169556
2022-10-07T05:57:24.314Z,1027.092163
2022-10-07T05:58:25.203Z,1027.175293
2022-10-07T05:59:30.534Z,1027.137817
2022-10-07T06:00:29.863Z,1027.161621
2022-10-07T06:02:29.514Z,1027.167114
2022-10-07T06:03:25.616Z,1027.09729
2022-10-07T06:04:29.330Z,1027.081299
2022-10-07T06:08:54.804Z,1027.100098
2022-10-07T06:09:02.298Z,1027.082642
2022-10-07T06:10:03.205Z,1027.160278
2022-10-07T06:10:58.433Z,1027.15271
2022-10-07T06:11:59.589Z,1027.133545
2022-10-07T06:12:54.900Z,1027.10437
2022-10-07T06:13:54.580Z,1027.093262
2022-10-07T06:14:50.102Z,1027.128052
2022-10-07T06:15:52.642Z,1027.127563
2022-10-07T06:17:47.263Z,1027.074097
2022-10-07T06:18:42.860Z,1027.071777
2022-10-07T06:19:43.930Z,1027.055542
2022-10-07T06:20:39.222Z,1027.094971
2022-10-07T06:22:35.513Z,1027.063232
2022-10-07T06:23:40.539Z,1027.036377
2022-10-07T06:24:36.365Z,1027.05249
2022-10-07T06:25:39.144Z,1027.05249
2022-10-07T06:27:45.048Z,1026.991455
2022-10-07T06:28:38.600Z,1026.977661
2022-10-07T06:29:38.579Z,1026.964233
2022-10-07T06:30:34.075Z,1026.966919
2022-10-07T06:32:29.140Z,1027.031494
2022-10-07T06:33:28.911Z,1026.980713
2022-10-07T06:34:25.585Z,1027.002319
2022-10-07T06:35:24.452Z,1027.023926
2022-10-07T06:37:21.102Z,1026.988892
2022-10-07T06:38:20.357Z,1026.994385
2022-10-07T06:39:18.445Z,1026.988892
2022-10-07T06:40:21.495Z,1026.978149
2022-10-07T06:41:16.717Z,1027.005005
2022-10-07T06:42:21.992Z,1027.042358
2022-10-07T06:43:14.830Z,1026.981201
2022-10-07T06:44:17.400Z,1027.021118
2022-10-07T06:45:10.362Z,1026.955078
2022-10-07T06:47:52.896Z,1026.922729
2022-10-07T06:48:13.265Z,1026.87207
2022-10-07T06:49:12.307Z,1026.936401
2022-10-07T06:50:09.918Z,1026.920532
2022-10-07T06:51:07.966Z,1026.891357
2022-10-07T06:52:07.773Z,1026.875122
2022-10-07T06:53:02.971Z,1026.984985
2022-10-07T06:54:04.309Z,1026.877686
2022-10-07T06:54:59.624Z,1026.939331
2022-10-07T06:55:59.730Z,1026.966064
2022-10-07T06:57:59.114Z,1027.00647
2022-10-07T06:58:52.728Z,1026.987549
2022-10-07T06:59:52.067Z,1026.937134
2022-10-07T07:00:48.507Z,1026.937134
2022-10-07T07:01:48.575Z,1026.963989
2022-10-07T07:02:44.282Z,1027.05188
2022-10-07T07:03:44.988Z,1027.001465
2022-10-07T07:04:41.683Z,1026.985352
2022-10-07T07:05:44.609Z,1027.003662
2022-10-07T07:07:38.472Z,1027.03064
2022-10-07T07:08:35.006Z,1027.001709
2022-10-07T07:09:35.504Z,1026.964111
2022-10-07T07:10:31.209Z,1027.004028
2022-10-07T07:12:30.973Z,1027.014893
2022-10-07T07:13:26.321Z,1027.089966
2022-10-07T07:14:29.518Z,1027.025635
2022-10-07T07:15:22.554Z,1027.02832
2022-10-07T07:25:47.726Z,1026.870972
2022-10-07T07:27:46.964Z,1026.822144
2022-10-07T07:28:48.472Z,1026.831299
2022-10-07T07:29:44.949Z,1026.858643
2022-10-07T07:30:46.080Z,1026.94812
2022-10-07T07:31:43.517Z,1026.911377
2022-10-07T07:32:46.755Z,1026.916748
2022-10-07T07:33:41.500Z,1026.954468
2022-10-07T07:34:45.015Z,1026.914795
2022-10-07T07:38:40.714Z,1026.893066
2022-10-07T07:39:20.502Z,1026.913818
2022-10-07T07:40:19.658Z,1026.868164
2022-10-07T07:42:03.206Z,1026.825317
2022-10-07T07:42:42.757Z,1026.893066
2022-10-07T07:43:40.666Z,1026.857666
2022-10-07T07:44:37.476Z,1026.87915
2022-10-07T07:45:37.269Z,1026.887695
2022-10-07T07:47:22.540Z,1026.842285
2022-10-07T07:48:02.628Z,1026.85022
2022-10-07T07:49:01.755Z,1026.796631
2022-10-07T07:50:01.489Z,1026.788452
2022-10-07T07:52:07.654Z,1026.834106
2022-10-07T07:53:03.533Z,1026.871582
2022-10-07T07:54:03.692Z,1026.87915
2022-10-07T07:54:58.933Z,1026.855469
2022-10-07T08:17:53.114Z,1026.490845
2022-10-07T09:47:31.751Z,1025.602783
2022-10-07T09:48:08.566Z,1025.526123
2022-10-07T09:49:06.586Z,1025.553833
2022-10-07T09:50:05.812Z,1025.484863
2022-10-07T09:51:00.422Z,1025.524902
2022-10-07T09:52:55.023Z,1025.453125
2022-10-07T09:53:53.783Z,1025.52002
2022-10-07T09:54:48.311Z,1025.500122
2022-10-07T09:55:47.992Z,1025.53772
2022-10-07T09:57:43.200Z,1025.503418
2022-10-07T09:58:37.933Z,1025.592773
2022-10-07T09:59:38.044Z,1025.49231
2022-10-07T10:00:33.331Z,1025.570801
2022-10-07T10:01:35.785Z,1025.569092
2022-10-07T10:02:28.513Z,1025.499146
2022-10-07T10:03:28.326Z,1025.435425
2022-10-07T10:04:23.150Z,1025.470337
2022-10-07T10:05:23.183Z,1025.424316
2022-10-07T10:07:18.116Z,1025.400269
2022-10-07T10:08:13.313Z,1025.506592
2022-10-07T10:09:16.871Z,1025.526123
2022-10-07T10:09:20.203Z,1025.526123
2022-10-07T10:10:08.566Z,1025.543701
2022-10-07T10:11:08.513Z,1025.538696
2022-10-07T10:13:06.251Z,1025.378052
2022-10-07T10:13:59.138Z,1025.448242
2022-10-07T10:14:59.410Z,1025.407104
2022-10-07T10:15:54.726Z,1025.344849
2022-10-07T10:17:50.113Z,1025.340942
2022-10-07T10:18:53.030Z,1025.426636
2022-10-07T10:19:45.943Z,1025.377319
2022-10-07T10:20:46.417Z,1025.357544
2022-10-07T10:21:41.830Z,1025.368652
2022-10-07T10:22:42.595Z,1025.340454
2022-10-07T10:23:37.991Z,1025.327637
2022-10-07T10:24:40.904Z,1025.297607
2022-10-07T10:25:33.796Z,1025.324585
2022-10-07T10:26:36.641Z,1025.257446
2022-10-07T10:27:29.414Z,1025.24939
2022-10-07T10:28:27.353Z,1025.267334
2022-10-07T10:29:25.285Z,1025.187988
2022-10-07T10:30:27.727Z,1025.236084
2022-10-07T10:32:21.339Z,1025.121216
2022-10-07T10:34:06.669Z,1025.153076
2022-10-07T10:34:26.931Z,1025.129639
2022-10-07T10:35:25.885Z,1025.075562
2022-10-07T10:36:27.112Z,1025.046997
2022-10-07T10:37:23.345Z,1025.062988
2022-10-07T10:38:23.978Z,1025.011475
2022-10-07T10:39:20.241Z,1024.974609
2022-10-07T10:40:20.196Z,1024.938232
2022-10-07T10:41:15.867Z,1024.910278
2022-10-07T10:42:16.696Z,1024.894409
2022-10-07T10:43:12.251Z,1024.878418
2022-10-07T10:44:12.606Z,1024.830322
2022-10-07T10:45:08.470Z,1024.893921
2022-10-07T10:46:08.631Z,1024.925537
2022-10-07T10:48:01.535Z,1024.905762
2022-10-07T10:48:59.253Z,1024.859863
2022-10-07T10:49:56.857Z,1024.915039
2022-10-07T10:50:54.321Z,1024.807983
2022-10-07T10:52:49.846Z,1024.814087
2022-10-07T10:53:46.629Z,1024.774536
2022-10-07T10:54:44.075Z,1024.682129
2022-10-07T10:55:41.557Z,1024.786987
2022-10-07T10:56:38.839Z,1024.855591
2022-10-07T10:57:36.480Z,1024.809937
2022-10-07T10:58:34.270Z,1024.755859
2022-10-07T10:59:31.680Z,1024.745117
2022-10-07T11:00:29.201Z,1024.70166
2022-10-07T11:01:26.610Z,1024.694092
2022-10-07T11:02:24.201Z,1024.723755
2022-10-07T11:03:23.208Z,1024.707886
2022-10-07T11:04:18.173Z,1024.723755
2022-10-07T11:05:20.719Z,1024.695313
2022-10-07T11:06:14.878Z,1024.695313
2022-10-07T11:07:13.022Z,1024.630127
2022-10-07T11:08:07.855Z,1024.662109
2022-10-07T11:09:52.345Z,1024.60437
2022-10-07T11:10:12.927Z,1024.656128
2022-10-07T11:11:12.447Z,1024.693237
2022-10-07T11:12:13.806Z,1024.615356
2022-10-07T11:13:10.253Z,1024.612427
2022-10-07T11:14:11.159Z,1024.620117
2022-10-07T11:15:07.810Z,1024.583374
2022-10-07T11:16:08.561Z,1024.519897
2022-10-07T11:17:04.327Z,1024.514893
2022-10-07T11:18:04.944Z,1024.512329
2022-10-07T11:19:00.957Z,1024.469116
2022-10-07T11:20:04.537Z,1024.550293
2022-10-07T11:20:57.905Z,1024.445679
2022-10-07T11:21:58.487Z,1024.418579
2022-10-07T11:22:54.242Z,1024.418457
2022-10-07T11:23:54.997Z,1024.394165
2022-10-07T11:24:53.299Z,1024.270508
2022-10-07T11:27:14.439Z,1024.19165
2022-10-07T11:28:17.799Z,1024.292603
2022-10-07T11:29:11.240Z,1024.281494
2022-10-07T11:30:12.116Z,1024.197144
2022-10-07T11:31:07.920Z,1024.284546
2022-10-07T11:33:05.073Z,1024.187256
2022-10-07T11:34:07.979Z,1024.198242
2022-10-07T11:35:02.203Z,1024.179321
2022-10-07T11:35:59.806Z,1024.163452
2022-10-07T11:37:56.486Z,1024.075928
2022-10-07T11:38:57.452Z,1024.160522
2022-10-07T11:39:53.918Z,1024.052246
2022-10-07T11:40:52.492Z,1024.079468
2022-10-07T11:41:49.835Z,1024.125854
2022-10-07T11:42:48.716Z,1023.993225
2022-10-07T11:44:26.202Z,1023.944031
2022-10-07T11:45:06.370Z,1023.960388
2022-10-07T11:46:10.623Z,1023.903625
2022-10-07T11:47:05.179Z,1023.83844
2022-10-07T11:48:00.458Z,1023.924438
2022-10-07T11:49:00.482Z,1023.919617
2022-10-07T11:49:55.634Z,1024.008423
2022-10-07T11:50:58.183Z,1023.914673
2022-10-07T11:51:53.832Z,1023.882324
2022-10-07T11:52:55.955Z,1023.901001
2022-10-07T11:53:49.434Z,1023.828186
2022-10-07T11:54:46.284Z,1023.903625
2022-10-07T11:55:43.821Z,1023.838318
2022-10-07T11:56:41.986Z,1023.822327
2022-10-07T11:57:39.451Z,1023.775879
2022-10-07T11:58:36.987Z,1023.752258
2022-10-07T11:59:35.076Z,1023.732788
2022-10-07T12:00:37.595Z,1023.651611
2022-10-07T12:02:28.677Z,1023.667542
2022-10-07T12:03:26.358Z,1023.578796
2022-10-07T12:04:23.656Z,1023.621948
2022-10-07T12:05:21.256Z,1023.605957
2022-10-07T12:06:18.716Z,1023.562866
2022-10-07T12:07:16.238Z,1023.535889
2022-10-07T12:08:13.596Z,1023.589905
2022-10-07T12:09:11.003Z,1023.511108
2022-10-07T12:10:50.548Z,1023.494629
2022-10-07T12:13:11.430Z,1023.324707
2022-10-07T12:13:47.988Z,1023.324585
2022-10-07T12:14:45.942Z,1023.380493
2022-10-07T12:15:44.797Z,1023.351685
2022-10-07T12:16:39.210Z,1023.356628
2022-10-07T12:17:38.193Z,1023.321289
2022-10-07T12:18:33.425Z,1023.434082
2022-10-07T12:19:31.413Z,1023.432129
2022-10-07T12:20:25.861Z,1023.341309
2022-10-07T12:21:24.659Z,1023.361633
2022-10-07T12:22:18.801Z,1023.321777
2022-10-07T12:23:20.093Z,1023.364807
2022-10-07T12:24:11.969Z,1023.28363
2022-10-07T12:25:11.293Z,1023.270752
2022-10-07T12:26:04.447Z,1023.211609
2022-10-07T12:28:00.498Z,1023.211609
2022-10-07T12:28:54.822Z,1023.233643
2022-10-07T12:29:51.303Z,1023.176697
2022-10-07T12:30:50.501Z,1023.211609
2022-10-07T12:31:44.650Z,1023.155823
2022-10-07T12:32:43.544Z,1023.139771
2022-10-07T12:33:37.059Z,1023.101685
2022-10-07T12:34:33.457Z,1023.139771
2022-10-07T12:35:32.101Z,1023.054993
2022-10-07T12:36:26.384Z,1023.093262
2022-10-07T12:37:24.899Z,1023.026672
2022-10-07T12:38:19.080Z,1023.013306
2022-10-07T12:39:20.374Z,1022.96991
2022-10-07T12:40:11.648Z,1022.983459
2022-10-07T12:41:07.963Z,1022.969788
2022-10-07T12:42:06.735Z,1022.963928
2022-10-07T12:43:00.426Z,1022.952942
2022-10-07T12:44:01.887Z,1022.887695
2022-10-07T12:44:54.093Z,1022.887695
2022-10-07T12:45:54.750Z,1022.811462
2022-10-07T12:48:25.297Z,1022.827881
2022-10-07T12:49:25.456Z,1022.762024
2022-10-07T12:50:20.525Z,1022.695251
2022-10-07T12:51:14.894Z,1022.666748
2022-10-07T12:52:14.308Z,1022.673096
2022-10-07T12:53:09.522Z,1022.650513
2022-10-07T12:54:34.051Z,1022.663513
2022-10-07T12:55:13.860Z,1022.607178
2022-10-07T12:56:11.548Z,1022.554993
2022-10-07T12:57:12.230Z,1022.575378
2022-10-07T12:58:07.494Z,1022.535645
2022-10-07T12:59:07.574Z,1022.479553
2022-10-07T13:00:03.821Z,1022.537109
2022-10-07T13:01:03.238Z,1022.527344
2022-10-07T13:01:58.865Z,1022.451111
2022-10-07T13:02:58.589Z,1022.573059
2022-10-07T13:03:53.976Z,1022.53009
2022-10-07T13:04:53.205Z,1022.541077
2022-10-07T13:05:50.469Z,1022.444641
2022-10-07T13:07:46.021Z,1022.559082
2022-10-07T13:08:48.733Z,1022.492004
2022-10-07T13:09:43.092Z,1022.4729
2022-10-07T13:10:46.352Z,1022.364624
2022-10-07T13:11:39.212Z,1022.364624
2022-10-07T13:12:39.331Z,1022.310547
2022-10-07T13:13:34.835Z,1022.334351
2022-10-07T13:14:34.466Z,1022.326538
2022-10-07T13:15:29.678Z,1022.283508
2022-10-07T13:17:25.696Z,1022.267456
2022-10-07T13:18:25.239Z,1022.213501
2022-10-07T13:19:25.726Z,1022.275452
2022-10-07T13:20:18.527Z,1022.232422
2022-10-07T13:21:15.895Z,1022.297607
2022-10-07T13:22:39.210Z,1022.200439
2022-10-07T13:23:24.594Z,1022.227539
2022-10-07T13:23:27.218Z,1022.227539
2022-10-07T13:24:20.676Z,1022.210083
2022-10-07T13:25:16.376Z,1022.17395
2022-10-07T13:26:17.119Z,1022.17395
2022-10-07T13:27:13.479Z,1022.154602
2022-10-07T13:28:14.989Z,1022.165833
2022-10-07T13:29:10.644Z,1022.165833
2022-10-07T13:30:11.544Z,1022.076599
2022-10-07T13:31:07.732Z,1022.180115
2022-10-07T13:32:13.392Z,1022.028809
2022-10-07T13:33:06.734Z,1022.05896
2022-10-07T13:34:11.634Z,1022.04303
2022-10-07T13:35:06.117Z,1022.015869
2022-10-07T13:36:03.463Z,1021.965027
2022-10-07T13:37:03.848Z,1022.030273
2022-10-07T13:37:59.830Z,1021.956848
2022-10-07T13:39:02.950Z,1021.983887
2022-10-07T13:39:57.310Z,1021.972778
2022-10-07T13:40:56.786Z,1021.926819
2022-10-07T13:41:53.056Z,1022.035095
2022-10-07T13:42:56.132Z,1022.015869
2022-10-07T13:43:50.308Z,1021.988892
2022-10-07T13:44:52.626Z,1021.926941
2022-10-07T13:45:46.430Z,1021.906128
2022-10-07T13:46:49.371Z,1021.902771
2022-10-07T13:47:43.044Z,1021.867859